Temp: 10.2°C   Baro: 1017.7mb
  Wind: 4.0mph   Dir: NW (316°)
  Rain: 0.0mm (0.0mm/hr)
  Sun: 543W/m2  Humidity: 63%

Historic data

Bath Spa Weather Station Historical Data
Daily Summary for February 25, 2024 Units:  Metric    English   Both
Daily Weekly Monthly Yearly Custom
  High: Low: Average:
Temperature: 6.4 °C -0.9 °C 3.4 °C
Dew Point: 5.4 °C -1.7 °C 2.4 °C
Humidity: 95% 86% 93%
Wind Speed: 21.6km/h 0km/h 8.7km/h
Wind Gust: 48.3km/h - -
Wind- - ENE
Pressure: 998.9 hPa 991.1 hPa -
Precipitation: 8.89 mm    
Historical Graphs
 
 
Tabular Data for February 25, 2024
Time Temperature Dew Point Pressure Wind Wind Speed Wind Gust Humidity Rainfall Rate (Hourly) solar
00:09 0.9 °C -0.1 °C 998.5 hPa Calm     93% 0 mm 0 W/m2
00:14 0.9 °C -0.1 °C 998.5 hPa Calm     93% 0 mm 0 W/m2
00:19 0.8 °C -0.2 °C 998.5 hPa Calm     93% 0 mm 0 W/m2
00:24 0.8 °C -0.2 °C 998.9 hPa Calm     93% 0 mm 0 W/m2
00:29 0.8 °C -0.2 °C 998.9 hPa Calm     93% 0 mm 0 W/m2
00:34 0.8 °C -0.2 °C 998.5 hPa Calm     93% 0 mm 0 W/m2
00:39 0.7 °C -0.3 °C 998.5 hPa Calm     93% 0 mm 0 W/m2
00:44 0.7 °C -0.3 °C 998.5 hPa Calm     93% 0 mm 0 W/m2
00:48 0.6 °C -0.4 °C 998.5 hPa Calm     93% 0 mm 0 W/m2
00:54 0.6 °C -0.4 °C 998.5 hPa Calm     93% 0 mm 0 W/m2
00:59 0.5 °C -0.5 °C 998.5 hPa Calm     93% 0 mm 0 W/m2
01:04 0.4 °C -0.6 °C 998.5 hPa Calm     93% 0 mm 0 W/m2
01:09 0.3 °C -0.7 °C 998.5 hPa Calm     93% 0 mm 0 W/m2
01:14 0.2 °C -0.8 °C 998.5 hPa Calm     93% 0 mm 0 W/m2
01:19 0.2 °C -0.8 °C 998.5 hPa Calm     93% 0 mm 0 W/m2
01:24 0.2 °C -0.8 °C 998.5 hPa Calm     93% 0 mm 0 W/m2
01:29 0.1 °C -0.9 °C 998.5 hPa Calm     93% 0 mm 0 W/m2
01:34 0.1 °C -0.9 °C 998.5 hPa Calm     93% 0 mm 0 W/m2
01:39 0 °C -1 °C 998.2 hPa Calm     93% 0 mm 0 W/m2
01:44 -0.1 °C -1.1 °C 998.5 hPa Calm     93% 0 mm 0 W/m2
01:49 -0.1 °C -1.1 °C 998.2 hPa Calm     93% 0 mm 0 W/m2
01:54 -0.2 °C -1.2 °C 998.2 hPa WSW 0.6 km/h 3.2 km/h 93% 0 mm 0 W/m2
01:59 -0.2 °C -1.2 °C 998.2 hPa SW 1.9 km/h 4.8 km/h 93% 0 mm 0 W/m2
02:04 -0.2 °C -1.2 °C 998.2 hPa Calm   1.6 km/h 93% 0 mm 0 W/m2
02:09 -0.2 °C -1.2 °C 998.2 hPa Calm     93% 0 mm 0 W/m2
02:14 -0.1 °C -1.1 °C 998.2 hPa Calm     93% 0 mm 0 W/m2
02:19 -0.2 °C -1.2 °C 998.2 hPa Calm     93% 0 mm 0 W/m2
02:24 -0.2 °C -1.2 °C 998.2 hPa Calm     93% 0 mm 0 W/m2
02:29 -0.2 °C -1.2 °C 998.2 hPa Calm     93.2% 0 mm 0 W/m2
02:34 -0.2 °C -1 °C 997.9 hPa Calm     94% 0 mm 0 W/m2
02:39 -0.3 °C -1.2 °C 997.9 hPa Calm     93.4% 0 mm 0 W/m2
02:44 -0.3 °C -1.3 °C 997.9 hPa Calm     93% 0 mm 0 W/m2
02:49 -0.3 °C -1.3 °C 997.9 hPa Calm     93% 0 mm 0 W/m2
02:54 -0.3 °C -1.3 °C 997.9 hPa Calm     93% 0 mm 0 W/m2
02:59 -0.4 °C -1.2 °C 997.9 hPa Calm     94% 0 mm 0 W/m2
03:04 -0.4 °C -1.2 °C 997.9 hPa Calm     94% 0 mm 0 W/m2
03:09 -0.4 °C -1.3 °C 997.9 hPa Calm     94% 0 mm 0 W/m2
03:14 -0.5 °C -1.3 °C 997.9 hPa Calm     94% 0 mm 0 W/m2
03:19 -0.6 °C -1.4 °C 997.9 hPa Calm     94% 0 mm 0 W/m2
03:24 -0.7 °C -1.4 °C 997.9 hPa Calm     94% 0 mm 0 W/m2
03:29 -0.8 °C -1.6 °C 997.5 hPa Calm     94% 0 mm 0 W/m2
03:34 -0.8 °C -1.7 °C 997.5 hPa SSW 1.3 km/h 4.8 km/h 94% 0 mm 0 W/m2
03:39 -0.8 °C -1.7 °C 997.5 hPa SSW 0.6 km/h 3.2 km/h 94% 0 mm 0 W/m2
03:44 -0.8 °C -1.7 °C 997.5 hPa Calm   1.6 km/h 94% 0 mm 0 W/m2
03:49 -0.9 °C -1.7 °C 997.5 hPa Calm     94% 0 mm 0 W/m2
03:54 -0.9 °C -1.7 °C 997.5 hPa Calm     94% 0 mm 0 W/m2
03:59 -0.9 °C -1.7 °C 997.5 hPa Calm     94% 0 mm 0 W/m2
04:04 -0.9 °C -1.7 °C 997.2 hPa Calm     94% 0 mm 0 W/m2
04:09 -0.9 °C -1.7 °C 997.2 hPa Calm     94% 0 mm 0 W/m2
04:14 -0.9 °C -1.7 °C 997.2 hPa Calm     94% 0 mm 0 W/m2
04:19 -0.8 °C -1.7 °C 997.2 hPa SSW 0.6 km/h 3.2 km/h 94% 0 mm 0 W/m2
04:24 -0.8 °C -1.6 °C 997.2 hPa SSW 0.3 km/h 1.6 km/h 94% 0 mm 0 W/m2
04:29 -0.7 °C -1.6 °C 997.2 hPa Calm     94% 0 mm 0 W/m2
04:34 -0.6 °C -1.4 °C 997.2 hPa Calm     94% 0 mm 0 W/m2
04:39 -0.6 °C -1.3 °C 996.8 hPa SSW 0.6 km/h 3.2 km/h 94% 0 mm 0 W/m2
04:44 -0.4 °C -1.2 °C 996.8 hPa SSW 0.3 km/h 3.2 km/h 94% 0 mm 0 W/m2
04:49 -0.3 °C -1.2 °C 996.8 hPa Calm     94% 0 mm 0 W/m2
04:54 -0.3 °C -1.1 °C 996.8 hPa Calm     94% 0 mm 0 W/m2
04:59 -0.1 °C -0.9 °C 996.8 hPa SSW 3.2 km/h 4.8 km/h 94% 0 mm 0 W/m2
05:04 0.1 °C -0.8 °C 996.8 hPa SSW 0.6 km/h 4.8 km/h 94% 0 mm 0 W/m2
05:09 0.2 °C -0.7 °C 996.8 hPa SSW 1 km/h 3.2 km/h 94% 0 mm 0 W/m2
05:14 0.2 °C -0.7 °C 996.8 hPa SSW 0.8 km/h 3.2 km/h 94% 0 mm 0 W/m2
05:19 0.1 °C -0.8 °C 996.8 hPa SSW 2.6 km/h 4.8 km/h 94% 0 mm 0 W/m2
05:24 0.2 °C -0.7 °C 996.5 hPa SSE 2.6 km/h 6.4 km/h 94% 0 mm 0 W/m2
05:29 0.3 °C -0.6 °C 996.5 hPa ESE 3.1 km/h 8 km/h 94% 0 mm 0 W/m2
05:34 0.7 °C -0.1 °C 996.5 hPa SE 4.3 km/h 8 km/h 94.4% 0 mm 0 W/m2
05:39 0.9 °C 0.2 °C 996.5 hPa SE 2.1 km/h 6.4 km/h 94.6% 0 mm 0 W/m2
05:44 0.9 °C 0.1 °C 996.5 hPa SE 3.4 km/h 8 km/h 94% 0 mm 0 W/m2
05:49 1 °C 0.1 °C 996.5 hPa SE 1.9 km/h 8 km/h 94% 0 mm 0 W/m2
05:54 0.9 °C 0.1 °C 996.5 hPa SE 1.8 km/h 6.4 km/h 94.6% 0 mm 0 W/m2
05:59 1.1 °C 0.2 °C 996.5 hPa SE 3.9 km/h 8 km/h 94.4% 0 mm 0 W/m2
06:04 1.2 °C 0.6 °C 996.2 hPa SE 3.2 km/h 6.4 km/h 95% 0 mm 0 W/m2
06:09 1.3 °C 0.6 °C 996.2 hPa East 6.9 km/h 12.9 km/h 95% 0 mm 0 W/m2
06:14 1.3 °C 0.7 °C 996.2 hPa East 7.2 km/h 14.5 km/h 95% 0 mm 0 W/m2
06:19 1.3 °C 0.6 °C 995.8 hPa East 8.2 km/h 14.5 km/h 95% 0 mm 0 W/m2
06:24 1.3 °C 0.6 °C 995.8 hPa East 5.6 km/h 14.5 km/h 95% 0 mm 0 W/m2
06:29 1.3 °C 0.6 °C 995.8 hPa ESE 6.9 km/h 14.5 km/h 95% 0 mm 0 W/m2
06:34 1.3 °C 0.6 °C 995.8 hPa ESE 4.5 km/h 12.9 km/h 95% 0 mm 0 W/m2
06:39 1.3 °C 0.6 °C 995.8 hPa ENE 6 km/h 14.5 km/h 95% 0 mm 0 W/m2
06:44 1.4 °C 0.7 °C 995.8 hPa ESE 5.5 km/h 14.5 km/h 95% 0 mm 0 W/m2
06:49 1.6 °C 0.8 °C 995.8 hPa East 10 km/h 16.1 km/h 95% 0 mm 0 W/m2
06:54 1.6 °C 0.9 °C 995.8 hPa East 4.7 km/h 14.5 km/h 95% 0 mm 0 W/m2
06:59 1.6 °C 0.9 °C 995.8 hPa East 5.6 km/h 14.5 km/h 95% 0 mm 0 W/m2
07:04 1.6 °C 0.8 °C 995.5 hPa ENE 6.9 km/h 16.1 km/h 95% 0 mm 5 W/m2
07:09 1.5 °C 0.8 °C 995.5 hPa ENE 10.3 km/h 20.9 km/h 95% 0 mm 5 W/m2
07:14 1.5 °C 0.8 °C 995.5 hPa East 8.2 km/h 20.9 km/h 95% 0 mm 9 W/m2
07:19 1.5 °C 0.8 °C 995.5 hPa NE 6.3 km/h 17.7 km/h 95% 0 mm 11 W/m2
07:24 1.5 °C 0.8 °C 995.5 hPa East 5.3 km/h 17.7 km/h 95% 0 mm 14 W/m2
07:29 1.6 °C 0.9 °C 995.5 hPa ESE 10 km/h 16.1 km/h 95% 0 mm 16 W/m2
07:34 1.6 °C 0.8 °C 995.5 hPa ESE 5.3 km/h 12.9 km/h 95% 0 mm 19 W/m2
07:39 1.5 °C 0.8 °C 995.5 hPa ENE 7.1 km/h 16.1 km/h 95% 0 mm 23 W/m2
07:44 1.5 °C 0.8 °C 995.5 hPa ENE 6.9 km/h 16.1 km/h 95% 0 mm 28 W/m2
07:49 1.5 °C 0.8 °C 995.5 hPa ENE 4 km/h 12.9 km/h 95% 0 mm 30 W/m2
07:54 1.5 °C 0.8 °C 995.1 hPa East 6.9 km/h 12.9 km/h 95% 0 mm 32 W/m2
07:59 1.5 °C 0.8 °C 995.1 hPa ENE 9 km/h 12.9 km/h 95% 0 mm 35 W/m2
08:04 1.6 °C 0.9 °C 995.1 hPa ENE 7.6 km/h 16.1 km/h 95% 0 mm 42 W/m2
08:09 1.6 °C 0.9 °C 995.1 hPa ENE 5 km/h 14.5 km/h 95% 0 mm 47 W/m2
08:14 1.7 °C 1 °C 995.1 hPa ENE 8 km/h 16.1 km/h 95% 0 mm 49 W/m2
08:19 1.7 °C 1.1 °C 995.1 hPa East 8.2 km/h 16.1 km/h 95% 0 mm 56 W/m2
08:24 1.8 °C 1.1 °C 995.1 hPa East 8.4 km/h 16.1 km/h 95% 0 mm 65 W/m2
08:29 1.9 °C 1.2 °C 995.1 hPa East 8 km/h 17.7 km/h 95% 0 mm 83 W/m2
08:34 2 °C 1.3 °C 995.1 hPa East 6.4 km/h 17.7 km/h 95% 0 mm 90 W/m2
08:39 2.2 °C 1.4 °C 995.1 hPa East 7.2 km/h 16.1 km/h 95% 0 mm 93 W/m2
08:44 2.3 °C 1.6 °C 995.1 hPa East 6.6 km/h 14.5 km/h 95% 0 mm 88 W/m2
08:49 2.3 °C 1.6 °C 995.1 hPa East 5.1 km/h 12.9 km/h 95% 0 mm 93 W/m2
08:54 2.4 °C 1.7 °C 995.1 hPa ENE 5.3 km/h 16.1 km/h 95% 0 mm 104 W/m2
08:59 2.4 °C 1.7 °C 994.8 hPa ESE 4.5 km/h 20.9 km/h 95% 0 mm 111 W/m2
09:04 2.4 °C 1.8 °C 994.8 hPa East 8.9 km/h 20.9 km/h 95% 0 mm 105 W/m2
09:09 2.6 °C 1.9 °C 994.8 hPa East 7.2 km/h 16.1 km/h 95% 0 mm 121 W/m2
09:14 2.7 °C 2 °C 994.8 hPa East 4.7 km/h 12.9 km/h 95% 0 mm 121 W/m2
09:19 2.8 °C 2.1 °C 994.8 hPa East 5.6 km/h 14.5 km/h 95% 0 mm 158 W/m2
09:24 2.9 °C 2.2 °C 994.8 hPa East 6 km/h 16.1 km/h 95% 0 mm 200 W/m2
09:29 3.2 °C 2.6 °C 994.8 hPa East 12.2 km/h 19.3 km/h 95% 0 mm 241 W/m2
09:34 3.5 °C 2.8 °C 994.5 hPa East 9.3 km/h 17.7 km/h 95% 0 mm 155 W/m2
09:39 3.6 °C 2.9 °C 994.5 hPa East 9.8 km/h 17.7 km/h 95% 0 mm 141 W/m2
09:44 3.8 °C 3.1 °C 994.1 hPa East 8.9 km/h 16.1 km/h 95% 0 mm 153 W/m2
09:49 3.8 °C 3.1 °C 994.1 hPa East 5.8 km/h 16.1 km/h 95% 0 mm 179 W/m2
09:54 3.9 °C 3.2 °C 994.1 hPa East 6.8 km/h 17.7 km/h 95% 0 mm 202 W/m2
09:59 4.1 °C 3.4 °C 994.1 hPa East 7.7 km/h 20.9 km/h 95% 0 mm 183 W/m2
10:04 4.3 °C 3.6 °C 994.1 hPa East 8.9 km/h 17.7 km/h 95% 0 mm 178 W/m2
10:09 4.4 °C 3.8 °C 994.1 hPa East 12.6 km/h 17.7 km/h 95% 0 mm 197 W/m2
10:14 4.7 °C 4 °C 993.8 hPa East 8 km/h 17.7 km/h 95% 0 mm 199 W/m2
10:19 4.8 °C 4.2 °C 993.8 hPa East 9.5 km/h 24.1 km/h 95% 0 mm 199 W/m2
10:24 5.1 °C 4.3 °C 993.5 hPa East 10.8 km/h 20.9 km/h 95% 0 mm 167 W/m2
10:29 5.2 °C 4.5 °C 993.5 hPa East 10 km/h 25.7 km/h 95% 0 mm 163 W/m2
10:34 5.3 °C 4.6 °C 993.5 hPa ESE 4.7 km/h 14.5 km/h 95% 0 mm 144 W/m2
10:39 5.5 °C 4.8 °C 993.5 hPa East 8.5 km/h 20.9 km/h 95% 0 mm 125 W/m2
10:44 5.6 °C 4.9 °C 993.5 hPa East 12.9 km/h 24.1 km/h 95% 0 mm 121 W/m2
10:49 5.7 °C 4.8 °C 993.5 hPa ESE 11.4 km/h 22.5 km/h 94% 0 mm 114 W/m2
10:54 5.8 °C 4.9 °C 993.5 hPa ESE 7.9 km/h 25.7 km/h 94% 0 mm 88 W/m2
10:59 5.9 °C 5 °C 993.5 hPa ESE 7.1 km/h 22.5 km/h 94% 0 mm 98 W/m2
11:04 6.1 °C 5.2 °C 993.1 hPa ESE 12.6 km/h 22.5 km/h 94% 0 mm 114 W/m2
11:09 6.2 °C 5.3 °C 993.1 hPa East 11.6 km/h 33.8 km/h 94% 0.25 mm 116 W/m2
11:14 6.2 °C 5.3 °C 993.1 hPa East 12.6 km/h 33.8 km/h 94% 0.25 mm 102 W/m2
11:19 6.2 °C 5.3 °C 993.1 hPa East 10.9 km/h 35.4 km/h 94% 0.25 mm 107 W/m2
11:24 6.3 °C 5.3 °C 993.1 hPa East 10 km/h 35.4 km/h 94% 0.25 mm 90 W/m2
11:29 6.3 °C 5.4 °C 993.1 hPa East 8.7 km/h 17.7 km/h 94% 0.25 mm 95 W/m2
11:34 6.2 °C 5.3 °C 993.1 hPa ESE 10.6 km/h 22.5 km/h 94% 0.25 mm 97 W/m2
11:39 6.3 °C 5.3 °C 992.8 hPa ENE 11.6 km/h 29 km/h 94% 0.25 mm 100 W/m2
11:44 6.3 °C 5.4 °C 992.8 hPa East 16.1 km/h 25.7 km/h 94% 0.25 mm 95 W/m2
11:49 6.3 °C 5.4 °C 992.8 hPa East 15.8 km/h 27.4 km/h 94% 0.25 mm 100 W/m2
11:54 6.3 °C 5.3 °C 992.8 hPa East 12.6 km/h 22.5 km/h 93% 0.25 mm 125 W/m2
11:59 6.3 °C 5.3 °C 992.4 hPa East 13.8 km/h 33.8 km/h 93.2% 0.25 mm 132 W/m2
12:04 6.3 °C 5.4 °C 992.4 hPa East 12.6 km/h 27.4 km/h 93.2% 0.25 mm 146 W/m2
12:09 6.4 °C 5.4 °C 992.4 hPa East 12.6 km/h 25.7 km/h 93% 0.25 mm 142 W/m2
12:14 6.4 °C 5.4 °C 992.4 hPa East 14.2 km/h 29 km/h 93% 0 mm 100 W/m2
12:19 6.3 °C 5.3 °C 992.4 hPa East 14.8 km/h 27.4 km/h 93% 0 mm 97 W/m2
12:24 6.3 °C 5.3 °C 992.4 hPa ENE 12.2 km/h 25.7 km/h 93% 0.25 mm 63 W/m2
12:29 6.2 °C 5.2 °C 992.4 hPa ENE 12.6 km/h 25.7 km/h 93% 0.25 mm 69 W/m2
12:34 6.1 °C 5.1 °C 992.1 hPa East 9.7 km/h 16.1 km/h 93% 0.25 mm 107 W/m2
12:39 6 °C 5 °C 992.1 hPa NE 5.6 km/h 14.5 km/h 93% 0.25 mm 113 W/m2
12:44 6 °C 5 °C 992.1 hPa ENE 8.4 km/h 22.5 km/h 93% 0.51 mm 100 W/m2
12:49 6 °C 5 °C 992.1 hPa ENE 10.1 km/h 27.4 km/h 93% 0.51 mm 97 W/m2
12:54 5.8 °C 4.8 °C 992.1 hPa NE 11.9 km/h 25.7 km/h 93% 0.51 mm 86 W/m2
12:59 5.8 °C 4.8 °C 991.8 hPa ENE 10.9 km/h 25.7 km/h 93% 0.76 mm 84 W/m2
13:04 5.8 °C 4.8 °C 991.8 hPa ENE 10.3 km/h 24.1 km/h 93% 0.76 mm 49 W/m2
13:09 5.7 °C 4.7 °C 991.8 hPa ENE 13.8 km/h 29 km/h 93% 0.76 mm 49 W/m2
13:14 5.6 °C 4.6 °C 991.8 hPa ENE 11.3 km/h 24.1 km/h 93% 1.02 mm 65 W/m2
13:19 5.6 °C 4.6 °C 991.8 hPa ENE 14.8 km/h 25.7 km/h 93% 1.27 mm 76 W/m2
13:24 5.7 °C 4.7 °C 991.8 hPa East 5.1 km/h 25.7 km/h 93% 1.27 mm 86 W/m2
13:29 5.7 °C 4.7 °C 991.8 hPa ENE 10.6 km/h 24.1 km/h 93% 1.27 mm 97 W/m2
13:34 5.7 °C 4.7 °C 991.8 hPa ENE 11.6 km/h 24.1 km/h 93% 1.52 mm 74 W/m2
13:39 5.7 °C 4.7 °C 991.4 hPa East 14.8 km/h 32.2 km/h 93% 1.52 mm 74 W/m2
13:44 5.7 °C 4.7 °C 991.4 hPa East 16.7 km/h 30.6 km/h 93% 1.52 mm 63 W/m2
13:49 5.7 °C 4.7 °C 991.4 hPa ENE 9.3 km/h 30.6 km/h 93% 1.78 mm 69 W/m2
13:54 5.8 °C 4.8 °C 991.4 hPa East 10.3 km/h 22.5 km/h 93% 1.78 mm 70 W/m2
13:59 5.8 °C 4.8 °C 991.1 hPa East 13.8 km/h 27.4 km/h 93% 2.03 mm 77 W/m2
14:04 5.8 °C 4.8 °C 991.4 hPa ENE 16.4 km/h 35.4 km/h 93% 2.03 mm 74 W/m2
14:09 5.8 °C 4.8 °C 991.4 hPa East 16.6 km/h 35.4 km/h 93% 2.29 mm 67 W/m2
14:14 5.8 °C 4.8 °C 991.1 hPa East 13.8 km/h 30.6 km/h 93% 2.03 mm 51 W/m2
14:19 5.9 °C 4.9 °C 991.1 hPa East 13.8 km/h 29 km/h 93% 2.29 mm 46 W/m2
14:24 5.8 °C 4.8 °C 991.1 hPa East 11.6 km/h 25.7 km/h 93% 2.03 mm 46 W/m2
14:29 5.9 °C 4.9 °C 991.1 hPa ENE 13.8 km/h 24.1 km/h 93% 2.03 mm 39 W/m2
14:34 5.9 °C 4.9 °C 991.1 hPa East 12.4 km/h 35.4 km/h 93% 2.03 mm 35 W/m2
14:39 5.9 °C 4.9 °C 991.1 hPa East 13.5 km/h 27.4 km/h 93% 2.03 mm 33 W/m2
14:44 5.9 °C 4.9 °C 991.1 hPa ENE 12.9 km/h 27.4 km/h 93% 1.78 mm 37 W/m2
14:49 5.9 °C 4.9 °C 991.1 hPa East 11.6 km/h 22.5 km/h 93% 1.78 mm 37 W/m2
14:54 5.9 °C 4.9 °C 991.1 hPa East 6 km/h 33.8 km/h 93.2% 1.78 mm 33 W/m2
14:59 5.9 °C 4.9 °C 991.1 hPa East 15.6 km/h 32.2 km/h 93.6% 1.52 mm 32 W/m2
15:04 5.9 °C 4.9 °C 991.1 hPa East 11.3 km/h 33.8 km/h 93.8% 1.52 mm 30 W/m2
15:09 5.8 °C 4.9 °C 991.1 hPa ENE 9 km/h 30.6 km/h 94% 1.52 mm 26 W/m2
15:14 5.8 °C 4.9 °C 991.1 hPa East 13.2 km/h 24.1 km/h 94% 1.52 mm 28 W/m2
15:19 5.8 °C 4.9 °C 991.1 hPa East 12.2 km/h 25.7 km/h 94% 1.78 mm 26 W/m2
15:24 5.8 °C 4.9 °C 991.1 hPa East 9.5 km/h 27.4 km/h 94% 1.78 mm 25 W/m2
15:29 5.8 °C 4.9 °C 991.1 hPa East 16.7 km/h 29 km/h 94% 1.78 mm 23 W/m2
15:34 5.8 °C 4.9 °C 991.1 hPa ENE 15.1 km/h 30.6 km/h 94% 1.78 mm 23 W/m2
15:39 5.7 °C 4.8 °C 991.1 hPa ENE 18.7 km/h 35.4 km/h 94% 1.78 mm 21 W/m2
15:44 5.7 °C 4.8 °C 991.4 hPa ENE 10.3 km/h 30.6 km/h 94% 1.78 mm 23 W/m2
15:49 5.7 °C 4.8 °C 991.4 hPa ENE 15.9 km/h 30.6 km/h 94% 1.78 mm 26 W/m2
15:54 5.7 °C 4.8 °C 991.4 hPa ENE 8.5 km/h 24.1 km/h 94% 1.78 mm 28 W/m2
15:59 5.7 °C 4.8 °C 991.4 hPa ENE 8.4 km/h 25.7 km/h 94% 1.78 mm 28 W/m2
16:04 5.7 °C 4.8 °C 991.4 hPa ENE 12.4 km/h 19.3 km/h 94% 1.78 mm 26 W/m2
16:09 5.7 °C 4.8 °C 991.4 hPa East 8.4 km/h 22.5 km/h 94% 1.78 mm 26 W/m2
16:14 5.7 °C 4.8 °C 991.4 hPa NE 13.5 km/h 22.5 km/h 94% 1.78 mm 26 W/m2
16:19 5.7 °C 4.7 °C 991.4 hPa ENE 10.3 km/h 24.1 km/h 94% 1.52 mm 21 W/m2
16:24 5.6 °C 4.7 °C 991.4 hPa NE 12.9 km/h 24.1 km/h 94% 1.52 mm 21 W/m2
16:29 5.6 °C 4.7 °C 991.4 hPa NE 9.7 km/h 29 km/h 94% 1.52 mm 19 W/m2
16:34 5.6 °C 4.7 °C 991.4 hPa ENE 11.6 km/h 22.5 km/h 94% 1.52 mm 18 W/m2
16:39 5.5 °C 4.6 °C 991.4 hPa ENE 9.2 km/h 19.3 km/h 94% 1.52 mm 14 W/m2
16:44 5.4 °C 4.6 °C 991.8 hPa ENE 7.2 km/h 27.4 km/h 94% 1.27 mm 16 W/m2
16:49 5.4 °C 4.5 °C 991.8 hPa ENE 16.4 km/h 29 km/h 94% 1.27 mm 14 W/m2
16:54 5.4 °C 4.5 °C 991.8 hPa ENE 13.2 km/h 32.2 km/h 94% 1.27 mm 11 W/m2
16:59 5.3 °C 4.4 °C 991.8 hPa ENE 8.9 km/h 22.5 km/h 94% 1.02 mm 7 W/m2
17:04 5.4 °C 4.5 °C 991.8 hPa NE 8.9 km/h 20.9 km/h 94% 0.76 mm 5 W/m2
17:09 5.3 °C 4.4 °C 991.8 hPa ENE 9.2 km/h 22.5 km/h 94% 0.76 mm 5 W/m2
17:14 5.3 °C 4.4 °C 991.8 hPa ENE 12.4 km/h 29 km/h 94% 0.76 mm 0 W/m2
17:19 5.2 °C 4.3 °C 991.8 hPa ENE 11.9 km/h 24.1 km/h 94% 0.76 mm 0 W/m2
17:24 5.2 °C 4.3 °C 992.1 hPa ENE 9.5 km/h 30.6 km/h 94% 0.51 mm 0 W/m2
17:29 5.2 °C 4.3 °C 992.1 hPa ENE 12.6 km/h 22.5 km/h 94% 0.51 mm 0 W/m2
17:34 5.2 °C 4.3 °C 992.1 hPa ENE 10.3 km/h 29 km/h 94% 0.51 mm 0 W/m2
17:39 5.2 °C 4.2 °C 992.1 hPa ENE 8 km/h 30.6 km/h 93.4% 0.51 mm 0 W/m2
17:44 5.2 °C 4.2 °C 992.4 hPa ENE 10.9 km/h 25.7 km/h 93.2% 0.51 mm 0 W/m2
17:49 5.2 °C 4.2 °C 992.4 hPa ENE 10.8 km/h 27.4 km/h 93% 0.51 mm 0 W/m2
17:54 5.2 °C 4.2 °C 992.4 hPa ENE 12.1 km/h 29 km/h 93% 0.51 mm 0 W/m2
17:59 5.2 °C 4.2 °C 992.4 hPa NE 16.1 km/h 32.2 km/h 93% 0.51 mm 0 W/m2
18:04 5.1 °C 4.1 °C 992.4 hPa NE 13.8 km/h 30.6 km/h 93% 0.51 mm 0 W/m2
18:09 5.1 °C 4.1 °C 992.8 hPa NE 21.6 km/h 37 km/h 93% 0.51 mm 0 W/m2
18:14 5.1 °C 4.1 °C 992.8 hPa NE 8.5 km/h 37 km/h 93% 0.51 mm 0 W/m2
18:19 5.1 °C 4.1 °C 992.8 hPa ENE 12.6 km/h 25.7 km/h 93% 0.51 mm 0 W/m2
18:24 5 °C 4 °C 993.1 hPa ENE 12.2 km/h 20.9 km/h 93% 0.51 mm 0 W/m2
18:29 4.9 °C 3.9 °C 993.1 hPa NE 20.4 km/h 41.8 km/h 93% 0.51 mm 0 W/m2
18:34 4.9 °C 3.9 °C 993.1 hPa ENE 13.2 km/h 43.5 km/h 93% 0.51 mm 0 W/m2
18:39 4.9 °C 3.9 °C 993.5 hPa East 15.8 km/h 41.8 km/h 93% 0.51 mm 0 W/m2
18:44 4.9 °C 3.9 °C 993.5 hPa NE 15.8 km/h 35.4 km/h 93% 0.51 mm 0 W/m2
18:49 4.9 °C 3.9 °C 993.5 hPa NE 14.8 km/h 33.8 km/h 93% 0.51 mm 0 W/m2
18:54 4.8 °C 3.8 °C 993.5 hPa NE 15.4 km/h 38.6 km/h 93% 0.51 mm 0 W/m2
18:59 4.8 °C 3.8 °C 993.5 hPa NE 21.6 km/h 41.8 km/h 93% 0.51 mm 0 W/m2
19:04 4.8 °C 3.8 °C 993.5 hPa NE 9.2 km/h 32.2 km/h 93% 0.51 mm 0 W/m2
19:09 4.8 °C 3.8 °C 993.5 hPa ENE 15.8 km/h 30.6 km/h 93% 0.51 mm 0 W/m2
19:14 4.8 °C 3.8 °C 993.8 hPa NE 9.8 km/h 27.4 km/h 93% 0.51 mm 0 W/m2
19:19 4.8 °C 3.8 °C 993.8 hPa NE 12.2 km/h 25.7 km/h 93% 0.51 mm 0 W/m2
19:24 4.7 °C 3.7 °C 993.8 hPa NE 15.1 km/h 32.2 km/h 93% 0.51 mm 0 W/m2
19:29 4.7 °C 3.7 °C 993.8 hPa NE 11.3 km/h 22.5 km/h 93% 0.51 mm 0 W/m2
19:34 4.7 °C 3.7 °C 993.8 hPa ENE 15.4 km/h 35.4 km/h 93% 0.51 mm 0 W/m2
19:39 4.7 °C 3.7 °C 993.8 hPa NE 11.9 km/h 25.7 km/h 92.8% 0.51 mm 0 W/m2
19:44 4.7 °C 3.6 °C 994.1 hPa NNE 9.7 km/h 32.2 km/h 92.2% 0.51 mm 0 W/m2
19:49 4.7 °C 3.5 °C 994.1 hPa NE 15.4 km/h 30.6 km/h 92% 0.51 mm 0 W/m2
19:54 4.7 °C 3.5 °C 994.1 hPa NE 17.9 km/h 37 km/h 92% 0.51 mm 0 W/m2
19:59 4.7 °C 3.5 °C 994.1 hPa NE 14.8 km/h 29 km/h 92% 0.25 mm 0 W/m2
20:04 4.7 °C 3.5 °C 994.1 hPa NE 15.8 km/h 33.8 km/h 92% 0.51 mm 0 W/m2
20:09 4.7 °C 3.5 °C 994.5 hPa NNE 10 km/h 35.4 km/h 92% 0.51 mm 0 W/m2
20:14 4.7 °C 3.5 °C 994.5 hPa NE 13.8 km/h 29 km/h 92% 0.51 mm 0 W/m2
20:19 4.7 °C 3.5 °C 994.5 hPa NE 11.6 km/h 29 km/h 92% 0.51 mm 0 W/m2
20:24 4.7 °C 3.5 °C 994.8 hPa NE 6 km/h 35.4 km/h 92% 0.25 mm 0 W/m2
20:29 4.7 °C 3.5 °C 994.8 hPa NE 9.3 km/h 35.4 km/h 92% 0.51 mm 0 W/m2
20:34 4.7 °C 3.5 °C 994.8 hPa NNE 12.2 km/h 24.1 km/h 92% 0.51 mm 0 W/m2
20:39 4.7 °C 3.5 °C 994.8 hPa NE 15.1 km/h 27.4 km/h 92% 0.51 mm 0 W/m2
20:44 4.8 °C 3.6 °C 995.1 hPa NE 19.3 km/h 35.4 km/h 92% 0.51 mm 0 W/m2
20:49 4.8 °C 3.6 °C 995.1 hPa NE 12.2 km/h 30.6 km/h 91.6% 0.51 mm 0 W/m2
20:54 4.8 °C 3.6 °C 995.1 hPa NE 15.8 km/h 29 km/h 91.6% 0.51 mm 0 W/m2
20:59 4.8 °C 3.6 °C 995.1 hPa NE 16.1 km/h 35.4 km/h 92% 0.51 mm 0 W/m2
21:04 4.8 °C 3.5 °C 995.1 hPa NE 11.6 km/h 30.6 km/h 91% 0.51 mm 0 W/m2
21:09 4.8 °C 3.5 °C 995.1 hPa NE 15.1 km/h 32.2 km/h 91% 0.25 mm 0 W/m2
21:14 4.8 °C 3.5 °C 995.1 hPa NE 11.3 km/h 32.2 km/h 91% 0.25 mm 0 W/m2
21:19 4.8 °C 3.5 °C 995.5 hPa NE 13.2 km/h 27.4 km/h 91% 0.51 mm 0 W/m2
21:24 4.8 °C 3.5 °C 995.5 hPa ENE 12.1 km/h 22.5 km/h 91% 0.51 mm 0 W/m2
21:29 4.8 °C 3.5 °C 995.5 hPa NE 12.2 km/h 24.1 km/h 91% 0.51 mm 0 W/m2
21:34 4.8 °C 3.4 °C 995.5 hPa NNE 9.7 km/h 32.2 km/h 90.8% 0.25 mm 0 W/m2
21:39 4.8 °C 3.4 °C 995.8 hPa NE 14.5 km/h 33.8 km/h 90.6% 0.25 mm 0 W/m2
21:44 4.8 °C 3.3 °C 995.8 hPa NNE 11.9 km/h 27.4 km/h 90% 0.25 mm 0 W/m2
21:49 4.9 °C 3.4 °C 995.8 hPa North 17.4 km/h 40.2 km/h 90% 0.25 mm 0 W/m2
21:54 4.9 °C 3.4 °C 995.8 hPa NE 18.7 km/h 38.6 km/h 90% 0.25 mm 0 W/m2
21:59 4.9 °C 3.4 °C 996.2 hPa NE 16.4 km/h 43.5 km/h 90% 0.25 mm 0 W/m2
22:04 4.9 °C 3.3 °C 996.2 hPa NE 17.4 km/h 30.6 km/h 89.6% 0.25 mm 0 W/m2
22:09 4.9 °C 3.3 °C 996.5 hPa NNE 17.1 km/h 25.7 km/h 89.4% 0.25 mm 0 W/m2
22:14 4.9 °C 3.3 °C 996.5 hPa NE 15.1 km/h 38.6 km/h 89% 0.25 mm 0 W/m2
22:19 5 °C 3.3 °C 996.8 hPa NE 17.7 km/h 38.6 km/h 89% 0.25 mm 0 W/m2
22:24 5.1 °C 3.4 °C 996.8 hPa ENE 14.5 km/h 40.2 km/h 89% 0 mm 0 W/m2
22:29 5.1 °C 3.4 °C 996.8 hPa NNE 9.2 km/h 20.9 km/h 89% 0 mm 0 W/m2
22:34 5.1 °C 3.4 °C 996.8 hPa NE 13.8 km/h 35.4 km/h 89% 0 mm 0 W/m2
22:39 5.1 °C 3.4 °C 996.8 hPa NE 13.8 km/h 33.8 km/h 89% 0 mm 0 W/m2
22:44 5.1 °C 3.3 °C 997.2 hPa NE 16.1 km/h 27.4 km/h 88.6% 0 mm 0 W/m2
22:49 5.1 °C 3.3 °C 997.2 hPa NE 6.8 km/h 25.7 km/h 88.2% 0 mm 0 W/m2
22:54 5.1 °C 3.3 °C 997.2 hPa NE 15.1 km/h 37 km/h 88% 0 mm 0 W/m2
22:59 5.1 °C 3.3 °C 997.2 hPa NNE 12.6 km/h 30.6 km/h 88% 0 mm 0 W/m2
23:04 5.1 °C 3.3 °C 997.5 hPa NNE 17.1 km/h 38.6 km/h 88% 0 mm 0 W/m2
23:09 5.1 °C 3.3 °C 997.5 hPa NNE 14.2 km/h 25.7 km/h 88% 0 mm 0 W/m2
23:14 5.1 °C 3.1 °C 997.5 hPa NNE 14.5 km/h 32.2 km/h 87.2% 0 mm 0 W/m2
23:19 5.1 °C 3.1 °C 997.9 hPa ENE 13.5 km/h 32.2 km/h 87% 0 mm 0 W/m2
23:24 4.9 °C 2.9 °C 997.9 hPa NNE 17.2 km/h 41.8 km/h 87% 0 mm 0 W/m2
23:29 4.9 °C 2.9 °C 997.9 hPa NE 15.1 km/h 30.6 km/h 87% 0 mm 0 W/m2
23:34 4.9 °C 2.9 °C 998.2 hPa NE 10.3 km/h 48.3 km/h 87% 0 mm 0 W/m2
23:39 4.9 °C 2.8 °C 998.2 hPa NNE 12.6 km/h 32.2 km/h 86.2% 0 mm 0 W/m2
23:44 4.8 °C 2.7 °C 998.2 hPa ENE 10 km/h 22.5 km/h 86% 0 mm 0 W/m2
23:49 4.8 °C 2.7 °C 998.5 hPa NNE 9.7 km/h 25.7 km/h 86% 0 mm 0 W/m2
23:54 4.7 °C 2.6 °C 998.5 hPa NE 11.6 km/h 30.6 km/h 86% 0 mm 0 W/m2
23:59 4.7 °C 2.6 °C 998.5 hPa NNE 12.2 km/h 30.6 km/h 86% 0 mm 0 W/m2
Bath Spa Weather
Compliments of Weather Underground - 2 mb